Time;durP1;ratioP1;P1;durP2;ratioP2;P2;SDS_P1;SDS_P2;PMS_P1;PMS_P2;Temp;Humidity;BMP_temperature;BMP_pressure;BME280_temperature;BME280_humidity;BME280_pressure;Samples;Min_cycle;Max_cycle;Signal;HPM_P1;HPM_P2
2021/06/13 00:01:51;;;;;;;15.97;8.97;;;13.50;99.90;;;;;;5092416;28;20339;-80
2021/06/13 00:04:17;;;;;;;17.43;8.53;;;13.50;99.90;;;;;;5092176;28;20621;-79
2021/06/13 00:06:43;;;;;;;14.77;8.20;;;13.50;99.90;;;;;;5092746;28;20285;-78
2021/06/13 00:09:11;;;;;;;13.50;8.37;;;13.30;99.90;;;;;;5092200;28;20316;-80
2021/06/13 00:11:38;;;;;;;15.23;8.93;;;13.40;99.90;;;;;;5092507;28;20726;-78
2021/06/13 00:14:05;;;;;;;14.00;8.60;;;13.40;99.90;;;;;;5095729;28;20281;-77
2021/06/13 00:16:31;;;;;;;14.67;9.17;;;13.40;99.90;;;;;;5096876;28;20241;-78
2021/06/13 00:18:57;;;;;;;16.17;9.57;;;13.40;99.90;;;;;;5096544;28;20299;-78
2021/06/13 00:21:24;;;;;;;17.57;9.77;;;13.40;99.90;;;;;;5096295;28;20619;-79
2021/06/13 00:23:50;;;;;;;13.27;8.50;;;13.30;99.90;;;;;;5096705;28;20276;-78
2021/06/13 00:26:19;;;;;;;16.40;8.90;;;13.40;99.90;;;;;;5096035;28;20191;-77
2021/06/13 00:28:45;;;;;;;15.13;8.90;;;13.40;99.90;;;;;;5096336;28;20578;-77
2021/06/13 00:31:12;;;;;;;18.87;9.40;;;13.40;99.90;;;;;;5096369;28;20290;-77
2021/06/13 00:33:38;;;;;;;16.80;9.90;;;13.30;99.90;;;;;;5095958;28;20292;-78
2021/06/13 00:36:05;;;;;;;19.27;9.77;;;13.30;99.90;;;;;;5096199;28;20245;-79
2021/06/13 00:38:31;;;;;;;13.30;9.80;;;13.40;99.90;;;;;;5095771;28;20293;-77
2021/06/13 00:40:58;;;;;;;17.13;9.50;;;13.40;99.90;;;;;;5096261;28;20694;-77
2021/06/13 00:43:25;;;;;;;19.23;10.23;;;13.30;99.90;;;;;;5096218;28;20197;-78
2021/06/13 00:45:52;;;;;;;16.47;10.30;;;13.30;99.90;;;;;;5096138;28;20214;-78
2021/06/13 00:48:19;;;;;;;12.60;9.60;;;13.20;99.90;;;;;;5095820;28;20229;-78
2021/06/13 00:50:48;;;;;;;21.80;10.30;;;13.20;99.90;;;;;;5096105;28;20289;-80
2021/06/13 00:53:15;;;;;;;17.50;10.20;;;13.20;99.90;;;;;;5096004;28;20754;-77
2021/06/13 00:55:42;;;;;;;18.03;9.90;;;13.20;99.90;;;;;;5095705;28;20218;-78
2021/06/13 00:58:08;;;;;;;19.60;10.37;;;13.00;99.90;;;;;;5096083;28;20285;-79
2021/06/13 01:00:38;;;;;;;17.47;10.30;;;13.00;99.90;;;;;;5095690;28;20231;-77
2021/06/13 01:03:05;;;;;;;19.67;11.10;;;13.00;99.90;;;;;;5095990;28;20238;-77
2021/06/13 01:05:32;;;;;;;22.57;10.97;;;13.00;99.90;;;;;;5095978;28;20233;-78
2021/06/13 01:08:09;;;;;;;18.23;10.83;;;13.00;99.90;;;;;;5095398;28;20574;-79
2021/06/13 01:10:44;;;;;;;22.20;11.07;;;13.10;99.90;;;;;;5095795;28;20194;-78
2021/06/13 01:13:17;;;;;;;21.10;12.00;;;13.00;99.90;;;;;;5081509;28;20284;-78
2021/06/13 01:15:52;;;;;;;16.40;11.70;;;13.00;99.90;;;;;;5095660;28;20235;-79
2021/06/13 01:18:24;;;;;;;19.30;11.17;;;12.90;99.90;;;;;;5081767;28;20202;-78
2021/06/13 01:20:55;;;;;;;20.30;11.50;;;12.90;99.90;;;;;;5095525;28;20282;-80
2021/06/13 01:23:43;;;;;;;22.67;11.13;;;12.90;99.90;;;;;;5095172;28;20190;-78
2021/06/13 01:26:55;;;;;;;20.67;11.33;;;12.80;99.90;;;;;;5094502;28;20202;-77
2021/06/13 01:29:27;;;;;;;16.20;10.47;;;12.90;99.90;;;;;;5039666;28;20657;-78
2021/06/13 01:31:56;;;;;;;17.93;11.23;;;13.00;99.90;;;;;;5081064;28;20241;-80
2021/06/13 01:34:27;;;;;;;21.97;11.33;;;13.00;99.90;;;;;;5095639;28;20209;-78
2021/06/13 01:36:55;;;;;;;19.17;11.20;;;13.00;99.90;;;;;;5094941;28;20222;-78
2021/06/13 01:39:25;;;;;;;23.63;12.20;;;12.90;99.90;;;;;;5095364;28;20204;-79
2021/06/13 01:41:52;;;;;;;16.97;11.20;;;12.90;99.90;;;;;;5094800;28;20210;-80
2021/06/13 01:44:21;;;;;;;18.63;11.47;;;12.90;99.90;;;;;;5094947;28;20278;-80
2021/06/13 01:46:51;;;;;;;19.10;11.50;;;12.90;99.90;;;;;;5095139;28;20207;-78
2021/06/13 01:49:19;;;;;;;20.30;12.07;;;12.90;99.90;;;;;;5094948;28;20551;-78
2021/06/13 01:51:46;;;;;;;21.23;11.00;;;12.90;99.90;;;;;;5094848;28;20278;-78
2021/06/13 01:54:13;;;;;;;21.47;11.53;;;12.80;99.90;;;;;;5094901;28;20286;-78
2021/06/13 01:56:47;;;;;;;17.73;11.87;;;12.80;99.90;;;;;;5094192;28;20627;-78
2021/06/13 01:59:14;;;;;;;19.27;11.00;;;12.80;99.90;;;;;;5094877;28;20191;-78
2021/06/13 02:01:42;;;;;;;21.13;11.93;;;12.80;99.90;;;;;;5095123;28;20652;-78
2021/06/13 02:04:12;;;;;;;20.23;11.90;;;12.70;99.90;;;;;;5094360;28;20205;-77
2021/06/13 02:06:42;;;;;;;20.20;11.53;;;12.60;99.90;;;;;;5094462;28;20315;-77
2021/06/13 02:09:09;;;;;;;20.67;11.37;;;12.60;99.90;;;;;;5094818;28;20271;-79
2021/06/13 02:11:39;;;;;;;18.43;10.53;;;12.70;99.90;;;;;;5094370;28;20600;-78
2021/06/13 02:14:06;;;;;;;20.50;11.40;;;12.60;99.90;;;;;;5094759;28;20199;-78
2021/06/13 02:16:33;;;;;;;21.13;10.93;;;12.60;99.90;;;;;;5093985;28;20282;-79
2021/06/13 02:19:00;;;;;;;18.77;11.67;;;12.60;99.90;;;;;;5094342;28;20659;-80
2021/06/13 02:21:29;;;;;;;22.60;12.53;;;12.60;99.90;;;;;;5094186;28;20218;-78
2021/06/13 02:23:56;;;;;;;18.17;11.87;;;12.60;99.90;;;;;;5094307;28;20230;-78
2021/06/13 02:26:24;;;;;;;21.33;11.33;;;12.60;99.90;;;;;;5092639;28;20247;-78
2021/06/13 02:28:54;;;;;;;19.53;10.70;;;12.60;99.90;;;;;;5094368;28;20221;-78
2021/06/13 02:31:24;;;;;;;26.03;11.50;;;12.60;99.90;;;;;;5093926;28;20657;-79
2021/06/13 02:33:51;;;;;;;19.57;10.80;;;12.50;99.90;;;;;;5094339;28;20537;-80
2021/06/13 02:36:18;;;;;;;19.43;11.73;;;12.40;99.90;;;;;;5093650;28;20205;-78
2021/06/13 02:38:46;;;;;;;19.70;11.57;;;12.40;99.90;;;;;;5093936;28;20198;-77
2021/06/13 02:41:12;;;;;;;19.57;11.90;;;12.40;99.90;;;;;;5094445;28;20204;-78
2021/06/13 02:43:39;;;;;;;18.03;10.70;;;12.40;99.90;;;;;;5094045;28;20203;-80
2021/06/13 02:46:05;;;;;;;17.90;10.33;;;12.30;99.90;;;;;;5094104;28;20207;-79
2021/06/13 02:48:31;;;;;;;17.50;10.80;;;12.30;99.90;;;;;;5093920;28;20258;-78
2021/06/13 02:50:58;;;;;;;18.37;11.00;;;12.30;99.90;;;;;;5093887;28;20202;-78
2021/06/13 02:53:32;;;;;;;20.27;10.67;;;12.30;99.90;;;;;;5093588;28;20218;-79
2021/06/13 02:56:08;;;;;;;17.47;10.67;;;12.40;99.90;;;;;;5095730;28;20222;-78
2021/06/13 02:58:41;;;;;;;19.77;10.73;;;12.40;99.90;;;;;;5102022;28;20197;-77
2021/06/13 03:01:10;;;;;;;18.30;10.27;;;12.50;99.90;;;;;;5115213;28;20206;-77
2021/06/13 03:03:38;;;;;;;28.10;11.17;;;12.50;99.90;;;;;;5106310;28;20233;-78
2021/06/13 03:06:09;;;;;;;18.17;10.10;;;12.40;99.90;;;;;;5086002;28;20699;-79
2021/06/13 03:08:36;;;;;;;18.87;10.07;;;12.40;99.90;;;;;;5084122;28;20207;-78
2021/06/13 03:11:06;;;;;;;22.70;10.63;;;12.50;99.90;;;;;;5114384;28;20584;-78
2021/06/13 03:13:33;;;;;;;21.87;10.47;;;12.40;99.90;;;;;;5102944;28;20299;-79
2021/06/13 03:16:01;;;;;;;16.90;9.43;;;12.40;99.90;;;;;;5107566;28;20654;-78
2021/06/13 03:18:30;;;;;;;20.90;9.57;;;12.40;99.90;;;;;;5113719;28;20276;-78
2021/06/13 03:20:57;;;;;;;14.63;9.53;;;12.30;99.90;;;;;;5113628;28;20197;-78
2021/06/13 03:23:27;;;;;;;15.80;8.60;;;12.40;99.90;;;;;;5113773;28;20206;-80
2021/06/13 03:25:55;;;;;;;14.53;9.33;;;12.30;99.90;;;;;;5097929;28;20198;-80
2021/06/13 03:28:25;;;;;;;15.10;8.67;;;12.20;99.90;;;;;;5072127;28;20672;-78
2021/06/13 03:30:53;;;;;;;13.70;8.70;;;12.10;99.90;;;;;;5109239;28;20707;-79
2021/06/13 03:33:21;;;;;;;17.20;9.00;;;12.10;99.90;;;;;;5107638;28;20276;-77
2021/06/13 03:35:49;;;;;;;18.40;9.03;;;12.10;99.90;;;;;;5105986;28;20277;-78
2021/06/13 03:38:17;;;;;;;15.83;9.23;;;12.10;99.90;;;;;;5113060;28;20639;-78
2021/06/13 03:40:46;;;;;;;16.63;8.40;;;12.10;99.90;;;;;;5113313;28;20197;-79
2021/06/13 03:43:14;;;;;;;19.30;9.30;;;12.20;99.90;;;;;;5112740;28;20186;-80
2021/06/13 03:45:42;;;;;;;16.70;9.00;;;12.50;99.90;;;;;;5105774;28;20602;-77
2021/06/13 03:48:10;;;;;;;15.53;7.90;;;12.70;99.90;;;;;;5107768;28;20293;-78
2021/06/13 03:50:38;;;;;;;11.23;7.60;;;12.90;99.90;;;;;;5104090;28;20281;-78
2021/06/13 03:53:05;;;;;;;13.83;7.17;;;13.20;99.90;;;;;;5081031;28;20222;-80
2021/06/13 03:55:32;;;;;;;15.77;7.37;;;13.40;99.90;;;;;;5113259;28;20228;-78
2021/06/13 03:58:00;;;;;;;12.87;7.20;;;13.60;99.90;;;;;;5101063;28;20299;-79
2021/06/13 04:00:29;;;;;;;10.97;6.77;;;13.70;99.90;;;;;;5109643;28;20216;-78
2021/06/13 04:02:59;;;;;;;14.00;7.37;;;13.70;99.90;;;;;;5101825;28;20205;-79
2021/06/13 04:05:27;;;;;;;11.73;7.00;;;13.70;99.90;;;;;;5091206;28;20197;-80
2021/06/13 04:07:55;;;;;;;15.83;7.07;;;13.70;99.90;;;;;;5097776;28;20204;-78
2021/06/13 04:10:23;;;;;;;10.33;7.07;;;13.70;99.90;;;;;;5102255;28;20935;-80
2021/06/13 04:12:51;;;;;;;11.23;7.47;;;13.50;99.90;;;;;;5113051;28;20662;-78
2021/06/13 04:15:20;;;;;;;13.87;7.67;;;13.40;99.90;;;;;;5112894;28;20517;-81
2021/06/13 04:17:48;;;;;;;11.57;8.23;;;13.50;99.90;;;;;;5112577;28;20193;-78
2021/06/13 04:20:19;;;;;;;19.70;9.73;;;13.60;99.90;;;;;;5076476;28;20202;-81
2021/06/13 04:22:46;;;;;;;18.27;9.20;;;13.50;99.90;;;;;;5098113;28;20260;-78
2021/06/13 04:25:14;;;;;;;19.83;10.60;;;13.50;99.90;;;;;;5090569;28;20202;-79
2021/06/13 04:27:43;;;;;;;19.30;10.50;;;13.60;99.90;;;;;;5094846;28;20626;-78
2021/06/13 04:30:11;;;;;;;16.13;9.73;;;13.80;99.90;;;;;;5112718;28;20224;-80
2021/06/13 04:32:38;;;;;;;19.33;9.73;;;13.90;99.90;;;;;;5112891;28;20281;-78
2021/06/13 04:35:06;;;;;;;17.20;8.07;;;14.00;99.90;;;;;;5112616;28;20291;-80
2021/06/13 04:37:34;;;;;;;12.50;8.10;;;14.20;99.90;;;;;;5112841;28;20528;-82
2021/06/13 04:40:01;;;;;;;15.73;8.03;;;14.60;99.90;;;;;;5112394;28;20625;-78
2021/06/13 04:42:28;;;;;;;14.83;7.40;;;15.00;99.90;;;;;;5103969;28;20615;-78
2021/06/13 04:44:55;;;;;;;12.10;6.63;;;15.90;99.90;;;;;;5106100;28;20202;-79
2021/06/13 04:47:22;;;;;;;9.20;6.83;;;17.00;99.90;;;;;;5112709;28;20247;-78
2021/06/13 04:49:51;;;;;;;11.10;6.50;;;18.20;99.90;;;;;;5112350;28;20305;-80
2021/06/13 04:52:19;;;;;;;9.93;6.87;;;19.40;99.90;;;;;;5112682;28;20190;-80
2021/06/13 04:55:11;;;;;;;14.40;6.80;;;20.60;99.90;;;;;;5112212;28;20190;-81
2021/06/13 04:57:48;;;;;;;12.80;5.90;;;21.50;99.90;;;;;;5112773;28;20289;-78
2021/06/13 05:00:15;;;;;;;10.97;6.33;;;22.00;99.90;;;;;;5090440;28;20284;-78
2021/06/13 05:02:42;;;;;;;16.13;6.17;;;22.50;99.90;;;;;;5116233;28;20216;-78
2021/06/13 05:05:10;;;;;;;17.37;6.80;;;22.50;99.90;;;;;;5115942;28;20696;-78
2021/06/13 05:07:37;;;;;;;10.10;6.17;;;22.50;99.90;;;;;;5115540;28;20289;-81
2021/06/13 05:10:06;;;;;;;11.50;6.60;;;22.30;99.90;;;;;;5116329;28;20245;-77
2021/06/13 05:12:47;;;;;;;10.43;6.57;;;21.60;99.90;;;;;;5107372;28;20277;-78
2021/06/13 05:15:16;;;;;;;13.63;6.90;;;21.30;99.90;;;;;;5098410;28;20191;-78
2021/06/13 05:17:43;;;;;;;15.47;7.27;;;20.20;99.90;;;;;;5094542;28;20256;-81
2021/06/13 05:20:11;;;;;;;15.87;7.63;;;19.50;99.90;;;;;;5100056;28;20629;-77
2021/06/13 05:22:50;;;;;;;16.23;7.13;;;18.40;99.90;;;;;;5090480;28;20225;-78
2021/06/13 05:25:19;;;;;;;15.37;7.57;;;17.70;99.90;;;;;;5115472;28;20229;-77
2021/06/13 05:27:46;;;;;;;17.37;7.70;;;17.40;99.90;;;;;;5115213;28;20212;-80
2021/06/13 05:30:14;;;;;;;17.33;7.53;;;18.10;99.90;;;;;;5115143;28;20312;-79
2021/06/13 05:32:41;;;;;;;17.40;7.37;;;19.00;99.90;;;;;;5096118;28;20551;-79
2021/06/13 05:35:09;;;;;;;14.47;7.33;;;20.50;99.90;;;;;;5102834;28;20202;-78
2021/06/13 05:37:36;;;;;;;14.83;8.17;;;21.80;99.90;;;;;;5108200;28;20591;-78
2021/06/13 05:40:05;;;;;;;21.53;7.93;;;21.90;99.90;;;;;;5102348;28;20327;-78
2021/06/13 05:42:34;;;;;;;15.80;7.73;;;23.10;99.90;;;;;;5110957;28;20237;-78
2021/06/13 05:45:01;;;;;;;12.93;8.02;;;24.00;99.90;;;;;;5101371;28;20195;-77
2021/06/13 05:47:27;;;;;;;12.77;7.30;;;24.20;99.90;;;;;;5108994;28;20284;-78
2021/06/13 05:49:54;;;;;;;14.88;7.88;;;23.90;99.90;;;;;;5101331;28;20353;-79
2021/06/13 05:52:21;;;;;;;18.08;8.35;;;23.80;99.90;;;;;;5107001;28;20425;-79
2021/06/13 05:54:48;;;;;;;11.63;7.45;;;24.20;99.90;;;;;;5105650;28;20286;-79
2021/06/13 05:57:15;;;;;;;13.57;7.78;;;24.40;99.90;;;;;;5105370;28;20212;-79
2021/06/13 05:59:43;;;;;;;14.45;7.78;;;24.70;99.90;;;;;;5109568;28;20698;-80
2021/06/13 06:02:10;;;;;;;15.25;6.85;;;25.10;99.90;;;;;;5098297;28;20202;-77
2021/06/13 06:04:37;;;;;;;13.90;6.60;;;25.80;99.90;;;;;;5077872;28;20653;-77
2021/06/13 06:07:04;;;;;;;13.68;6.85;;;26.80;99.90;;;;;;5087637;28;20661;-76
2021/06/13 06:09:31;;;;;;;14.95;6.43;;;27.60;99.90;;;;;;5091344;28;20246;-78
2021/06/13 06:11:58;;;;;;;12.13;6.03;;;27.90;99.90;;;;;;5082840;28;20219;-76
2021/06/13 06:14:25;;;;;;;9.77;5.80;;;28.30;99.90;;;;;;5082018;28;20222;-75
2021/06/13 06:16:53;;;;;;;15.40;6.07;;;28.30;99.90;;;;;;5083137;28;20270;-79
2021/06/13 06:19:20;;;;;;;11.15;5.65;;;27.30;99.90;;;;;;5081440;28;20291;-76
2021/06/13 06:21:47;;;;;;;13.05;5.97;;;27.40;99.90;;;;;;5083943;28;20230;-79
2021/06/13 06:24:14;;;;;;;11.13;6.22;;;27.00;99.90;;;;;;5076752;28;20617;-78
2021/06/13 06:26:41;;;;;;;12.68;5.72;;;27.00;99.90;;;;;;5088660;28;20233;-77
2021/06/13 06:29:08;;;;;;;13.65;5.90;;;26.70;99.90;;;;;;5085688;28;20580;-76
2021/06/13 06:31:35;;;;;;;10.40;5.53;;;26.80;99.90;;;;;;5103265;28;20190;-75
2021/06/13 06:34:03;;;;;;;9.77;5.35;;;26.70;99.90;;;;;;5114636;28;20198;-76
2021/06/13 06:36:30;;;;;;;13.30;5.60;;;26.80;99.90;;;;;;5114545;28;20281;-79
2021/06/13 06:38:57;;;;;;;12.48;5.22;;;26.80;99.90;;;;;;5105810;28;20277;-76
2021/06/13 06:41:24;;;;;;;10.38;4.82;;;27.50;99.90;;;;;;5114230;28;20234;-76
2021/06/13 06:43:52;;;;;;;10.13;4.72;;;27.80;99.90;;;;;;5114787;28;20289;-79
2021/06/13 06:46:19;;;;;;;10.10;4.50;;;27.20;99.90;;;;;;5114346;28;20640;-76
2021/06/13 06:48:46;;;;;;;9.48;3.83;;;26.70;99.90;;;;;;5114065;28;20612;-77
2021/06/13 06:51:14;;;;;;;10.95;4.38;;;27.20;99.90;;;;;;5113886;28;20301;-76
2021/06/13 06:53:41;;;;;;;8.93;4.10;;;27.40;99.90;;;;;;5114294;28;20225;-76
2021/06/13 06:56:08;;;;;;;7.82;3.72;;;27.90;99.90;;;;;;5091979;28;20197;-77
2021/06/13 06:58:35;;;;;;;9.00;4.47;;;28.40;99.90;;;;;;5081704;28;20281;-80
2021/06/13 07:01:02;;;;;;;8.77;4.03;;;28.60;99.90;;;;;;5088881;28;20246;-76
2021/06/13 07:03:30;;;;;;;10.30;3.97;;;28.80;99.90;;;;;;5088615;28;20222;-77
2021/06/13 07:05:57;;;;;;;9.32;3.67;;;28.20;99.90;;;;;;5083406;28;20198;-81
2021/06/13 07:08:25;;;;;;;9.23;3.83;;;27.30;99.90;;;;;;5096723;28;20244;-78
2021/06/13 07:10:52;;;;;;;6.47;3.55;;;27.30;99.90;;;;;;5094419;28;20214;-78
2021/06/13 07:13:19;;;;;;;7.68;3.63;;;27.70;99.90;;;;;;5095905;28;20637;-79
2021/06/13 07:15:46;;;;;;;7.45;3.47;;;28.10;99.90;;;;;;5091367;28;20195;-76
2021/06/13 07:18:12;;;;;;;7.75;3.50;;;28.60;99.90;;;;;;5093738;28;20198;-75
2021/06/13 07:20:41;;;;;;;7.80;3.17;;;28.90;99.90;;;;;;5094121;28;20221;-76
2021/06/13 07:23:08;;;;;;;7.07;3.50;;;28.80;99.90;;;;;;5104042;28;20198;-78
2021/06/13 07:25:37;;;;;;;9.30;3.60;;;28.50;99.90;;;;;;5094487;28;20286;-78
2021/06/13 07:28:05;;;;;;;8.73;3.80;;;28.90;99.90;;;;;;5079487;28;20292;-77
2021/06/13 07:30:33;;;;;;;6.90;3.63;;;29.20;99.90;;;;;;5093858;28;20221;-79
2021/06/13 07:33:02;;;;;;;9.60;4.05;;;29.00;99.90;;;;;;5088094;28;20222;-78
2021/06/13 07:35:29;;;;;;;12.02;4.63;;;29.20;99.90;;;;;;5092514;28;20187;-78
2021/06/13 07:37:56;;;;;;;8.70;3.55;;;29.70;99.90;;;;;;5096373;28;20193;-78
2021/06/13 07:40:23;;;;;;;9.65;3.85;;;31.90;99.90;;;;;;5091737;28;20195;-77
2021/06/13 07:42:52;;;;;;;8.80;3.30;;;33.00;99.90;;;;;;5085948;28;20228;-79
2021/06/13 07:45:19;;;;;;;8.13;3.58;;;32.70;99.90;;;;;;5080073;28;20269;-81
2021/06/13 07:47:46;;;;;;;13.13;3.70;;;32.70;99.90;;;;;;5087168;28;20198;-78
2021/06/13 07:50:15;;;;;;;6.90;3.75;;;32.90;99.90;;;;;;5099941;28;20302;-81
2021/06/13 07:52:42;;;;;;;8.70;3.65;;;32.40;99.90;;;;;;5088478;28;20730;-79
2021/06/13 07:55:11;;;;;;;9.30;3.88;;;32.70;99.50;;;;;;5087221;28;20209;-78
2021/06/13 07:57:39;;;;;;;9.48;3.47;;;33.70;98.90;;;;;;5065532;28;20286;-79
2021/06/13 08:00:10;;;;;;;7.93;4.05;;;34.20;99.90;;;;;;5080030;28;20214;-78
2021/06/13 08:02:37;;;;;;;8.05;3.45;;;34.60;97.90;;;;;;5101218;28;20250;-82
2021/06/13 08:05:09;;;;;;;7.63;3.80;;;33.60;97.10;;;;;;5072802;28;20207;-78
2021/06/13 08:07:36;;;;;;;11.52;3.97;;;33.60;97.00;;;;;;5097018;28;20596;-78
2021/06/13 08:10:03;;;;;;;9.10;4.13;;;33.60;98.10;;;;;;5094262;28;20314;-80
2021/06/13 08:12:30;;;;;;;10.60;4.55;;;33.30;97.10;;;;;;5071427;28;20230;-80
2021/06/13 08:14:57;;;;;;;8.05;3.83;;;32.80;97.80;;;;;;5088381;28;20198;-80
2021/06/13 08:17:25;;;;;;;10.50;3.80;;;32.80;96.20;;;;;;5079743;28;20218;-80
2021/06/13 08:19:52;;;;;;;7.25;3.30;;;33.10;97.80;;;;;;5073755;28;20191;-77
2021/06/13 08:22:19;;;;;;;10.82;4.03;;;33.40;95.60;;;;;;5067020;28;20295;-78
2021/06/13 08:24:46;;;;;;;5.85;3.40;;;33.50;95.90;;;;;;5078501;28;20275;-77
2021/06/13 08:27:14;;;;;;;11.20;3.53;;;32.70;95.20;;;;;;5078862;28;20223;-78
2021/06/13 08:29:42;;;;;;;7.35;3.72;;;32.20;96.30;;;;;;5080573;28;20301;-77
2021/06/13 08:32:09;;;;;;;5.13;3.25;;;31.80;97.00;;;;;;5086591;28;20632;-81
2021/06/13 08:34:37;;;;;;;6.63;3.50;;;32.70;99.70;;;;;;5078523;28;20196;-80
2021/06/13 08:37:04;;;;;;;8.88;3.75;;;33.20;95.50;;;;;;5075914;28;20626;-82
2021/06/13 08:39:31;;;;;;;6.47;3.42;;;33.30;95.70;;;;;;5078378;28;20262;-78
2021/06/13 08:41:59;;;;;;;8.85;3.80;;;32.20;95.30;;;;;;5077384;28;20199;-81
2021/06/13 08:44:26;;;;;;;16.83;4.00;;;31.70;95.40;;;;;;5086433;28;20562;-76
2021/06/13 08:46:54;;;;;;;5.85;3.30;;;32.00;95.70;;;;;;5080722;28;20223;-77
2021/06/13 08:49:22;;;;;;;11.05;3.80;;;32.10;97.80;;;;;;5080547;28;20862;-78
2021/06/13 08:51:50;;;;;;;6.93;3.63;;;32.30;96.80;;;;;;5079470;28;20232;-78
2021/06/13 08:54:18;;;;;;;4.57;2.78;;;33.10;96.30;;;;;;5079676;28;20234;-78
2021/06/13 08:56:45;;;;;;;9.88;2.90;;;32.40;96.00;;;;;;5080629;28;20188;-78
2021/06/13 08:59:13;;;;;;;9.93;3.33;;;31.80;97.90;;;;;;5084337;28;20544;-77
2021/06/13 09:01:40;;;;;;;5.38;3.10;;;33.90;96.60;;;;;;5088980;28;20323;-76
2021/06/13 09:04:11;;;;;;;6.80;3.50;;;35.80;96.00;;;;;;5084576;28;20219;-78
2021/06/13 09:06:44;;;;;;;6.00;3.40;;;37.10;94.10;;;;;;5078675;28;20191;-80
2021/06/13 09:09:20;;;;;;;6.75;3.50;;;36.80;91.80;;;;;;5083731;28;20183;-77
2021/06/13 09:12:19;;;;;;;8.10;3.40;;;34.00;92.70;;;;;;5082822;28;20309;-79
2021/06/13 09:14:54;;;;;;;6.50;3.28;;;32.50;93.90;;;;;;5076034;28;20187;-77
2021/06/13 09:17:29;;;;;;;6.05;3.28;;;32.20;94.40;;;;;;5081816;28;20214;-78
2021/06/13 09:20:19;;;;;;;5.50;2.90;;;32.60;94.60;;;;;;5095160;28;20190;-79
2021/06/13 09:23:11;;;;;;;6.03;3.05;;;32.40;94.90;;;;;;5082918;28;20195;-80
2021/06/13 09:25:42;;;;;;;11.20;3.33;;;33.20;94.90;;;;;;5090684;28;20225;-78
2021/06/13 09:28:11;;;;;;;5.53;3.00;;;34.50;94.30;;;;;;5069548;28;20203;-79
2021/06/13 09:30:42;;;;;;;7.78;3.13;;;34.70;93.20;;;;;;5090805;28;20306;-80
2021/06/13 09:33:13;;;;;;;11.32;3.63;;;34.90;93.00;;;;;;5090453;28;20234;-78
2021/06/13 09:35:41;;;;;;;5.97;2.78;;;33.80;94.00;;;;;;5091022;28;20285;-77
2021/06/13 09:38:26;;;;;;;7.20;3.35;;;32.80;95.70;;;;;;5094423;28;20660;-80
2021/06/13 09:40:58;;;;;;;4.00;3.05;;;32.80;94.00;;;;;;5085356;28;20740;-78
2021/06/13 09:43:29;;;;;;;8.27;3.30;;;32.20;93.90;;;;;;5080495;28;20198;-80
2021/06/13 09:46:01;;;;;;;7.90;3.30;;;31.30;95.50;;;;;;5085550;28;20197;-77
2021/06/13 09:48:29;;;;;;;6.38;2.67;;;31.20;95.70;;;;;;5072546;28;20227;-78
2021/06/13 09:50:59;;;;;;;8.45;3.50;;;32.30;96.90;;;;;;5077477;28;20305;-81
2021/06/13 09:53:38;;;;;;;8.85;3.20;;;33.00;95.40;;;;;;5082824;28;20583;-79
2021/06/13 09:56:26;;;;;;;6.25;3.35;;;33.80;93.80;;;;;;5089154;28;20213;-81
2021/06/13 09:59:05;;;;;;;6.35;3.30;;;34.00;94.20;;;;;;5081637;28;20199;-79
2021/06/13 10:01:38;;;;;;;7.55;3.33;;;32.40;94.20;;;;;;5090026;28;20226;-80
2021/06/13 10:04:07;;;;;;;5.97;3.17;;;30.60;95.20;;;;;;5081274;28;20540;-81
2021/06/13 10:06:38;;;;;;;6.25;3.30;;;31.40;97.20;;;;;;5092127;28;20201;-78
2021/06/13 10:09:07;;;;;;;7.18;4.07;;;33.40;97.30;;;;;;5082828;28;20192;-79
2021/06/13 10:11:37;;;;;;;8.07;3.17;;;34.70;94.20;;;;;;5073981;28;20223;-78
2021/06/13 10:14:06;;;;;;;5.70;3.10;;;33.80;94.40;;;;;;5081556;28;20218;-77
2021/06/13 10:16:38;;;;;;;5.43;3.33;;;32.40;94.20;;;;;;5103644;28;20277;-79
2021/06/13 10:19:08;;;;;;;6.85;2.92;;;32.00;94.90;;;;;;5087609;28;20199;-77
2021/06/13 10:21:37;;;;;;;5.40;3.13;;;30.60;95.10;;;;;;5091692;28;20264;-81
2021/06/13 10:24:07;;;;;;;6.35;3.60;;;29.50;98.10;;;;;;5069999;28;20673;-80
2021/06/13 10:26:37;;;;;;;6.32;2.67;;;30.50;97.50;;;;;;5079373;28;20295;-81
2021/06/13 10:29:04;;;;;;;8.13;2.67;;;30.50;95.60;;;;;;5077290;28;20554;-81
2021/06/13 10:31:33;;;;;;;7.38;3.00;;;30.80;96.00;;;;;;5072545;28;20722;-81
2021/06/13 10:34:00;;;;;;;9.07;3.88;;;30.40;97.80;;;;;;5085304;28;20198;-80
2021/06/13 10:36:28;;;;;;;7.72;2.88;;;29.80;97.20;;;;;;5091450;28;20226;-80
2021/06/13 10:38:55;;;;;;;6.38;3.17;;;31.20;98.60;;;;;;5083973;28;20672;-80
2021/06/13 10:41:23;;;;;;;5.43;2.78;;;32.50;96.90;;;;;;5091008;28;20293;-79
2021/06/13 10:43:58;;;;;;;5.60;3.03;;;32.90;96.30;;;;;;5073987;28;20187;-80
2021/06/13 10:46:28;;;;;;;6.85;2.78;;;33.10;96.80;;;;;;5082787;28;20195;-81
2021/06/13 10:48:58;;;;;;;7.93;4.93;;;33.40;95.00;;;;;;5079529;28;20227;-82
2021/06/13 10:51:37;;;;;;;7.00;3.38;;;31.60;94.90;;;;;;5087835;28;20253;-80
2021/06/13 10:54:31;;;;;;;8.52;3.80;;;30.90;95.70;;;;;;5087603;28;20270;-78
2021/06/13 10:57:26;;;;;;;9.85;3.65;;;29.60;96.10;;;;;;5084597;28;20194;-80
2021/06/13 10:59:56;;;;;;;7.53;3.70;;;29.10;97.80;;;;;;5084545;28;20386;-80
2021/06/13 11:02:24;;;;;;;7.00;3.47;;;31.60;97.50;;;;;;5090983;28;20285;-81
2021/06/13 11:04:53;;;;;;;6.50;3.35;;;30.90;95.60;;;;;;5093588;28;20275;-81
2021/06/13 11:07:58;;;;;;;6.50;3.05;;;31.70;96.80;;;;;;5085420;28;20249;-79
2021/06/13 11:10:34;;;;;;;7.00;3.10;;;31.80;95.40;;;;;;5089961;28;20201;-78
2021/06/13 11:13:13;;;;;;;5.75;2.80;;;30.90;95.30;;;;;;5089851;28;20244;-80
2021/06/13 11:16:03;;;;;;;7.38;3.22;;;31.20;95.20;;;;;;5082180;28;20200;-80
2021/06/13 11:18:32;;;;;;;8.23;3.22;;;32.40;97.30;;;;;;5089653;28;20226;-80
2021/06/13 11:21:20;;;;;;;5.15;2.90;;;32.60;95.10;;;;;;5082449;28;20233;-81
2021/06/13 11:24:05;;;;;;;4.78;3.20;;;33.60;96.70;;;;;;5080535;28;20230;-80
2021/06/13 11:26:40;;;;;;;5.05;3.10;;;34.50;94.10;;;;;;5090105;28;20229;-79
2021/06/13 11:29:12;;;;;;;4.32;2.78;;;33.10;94.70;;;;;;5091744;28;20197;-80
2021/06/13 11:31:52;;;;;;;5.65;3.20;;;33.60;96.60;;;;;;5088983;28;20261;-80
2021/06/13 11:34:19;;;;;;;8.15;2.88;;;33.00;93.70;;;;;;5089126;28;20209;-81
2021/06/13 11:36:49;;;;;;;5.28;3.15;;;30.90;95.70;;;;;;5089958;28;20282;-81
2021/06/13 11:39:25;;;;;;;9.55;3.33;;;31.30;95.30;;;;;;5085461;28;20633;-80
2021/06/13 11:42:07;;;;;;;6.20;3.20;;;31.90;97.60;;;;;;5096800;28;20202;-79
2021/06/13 11:44:46;;;;;;;7.55;3.15;;;32.20;94.80;;;;;;5082856;28;20219;-79
2021/06/13 11:47:32;;;;;;;8.02;3.47;;;31.60;97.20;;;;;;5086325;28;20199;-79
2021/06/13 11:50:00;;;;;;;7.70;2.92;;;32.00;95.60;;;;;;5084137;28;20555;-79
2021/06/13 11:53:06;;;;;;;9.07;3.40;;;31.60;95.80;;;;;;5082317;28;20219;-78
2021/06/13 11:56:02;;;;;;;7.50;3.65;;;31.10;95.70;;;;;;5082471;28;20198;-79
2021/06/13 11:58:30;;;;;;;5.63;3.22;;;31.20;96.70;;;;;;5084487;28;20187;-79
2021/06/13 12:01:00;;;;;;;7.82;3.03;;;30.20;95.60;;;;;;5079340;28;20291;-78
2021/06/13 12:03:30;;;;;;;8.30;3.08;;;30.20;97.30;;;;;;5090979;28;20198;-80
2021/06/13 12:06:14;;;;;;;5.93;2.97;;;29.70;97.70;;;;;;5083586;28;20191;-77
2021/06/13 12:08:42;;;;;;;6.13;3.30;;;29.90;96.60;;;;;;5081032;28;20222;-81
2021/06/13 12:11:10;;;;;;;9.13;3.33;;;30.00;96.30;;;;;;5089850;28;20566;-78
2021/06/13 12:13:37;;;;;;;7.00;2.90;;;29.70;96.60;;;;;;5090655;28;20282;-78
2021/06/13 12:16:18;;;;;;;6.07;3.00;;;29.20;97.60;;;;;;5083919;28;20640;-77
2021/06/13 12:19:04;;;;;;;4.70;2.83;;;28.90;97.30;;;;;;5083247;28;20202;-78
2021/06/13 12:21:32;;;;;;;8.15;3.20;;;28.90;97.90;;;;;;5087454;28;20203;-78
2021/06/13 12:24:13;;;;;;;5.63;2.92;;;29.60;98.90;;;;;;5085354;28;20233;-80
2021/06/13 12:29:26;;;;;;;5.50;2.83;;;28.70;97.70;;;;;;5085435;28;20256;-77
2021/06/13 12:31:54;;;;;;;6.13;2.90;;;29.00;97.10;;;;;;5076259;28;20756;-76
2021/06/13 12:34:23;;;;;;;7.07;3.17;;;29.20;99.10;;;;;;5076678;28;20199;-79
2021/06/13 12:36:52;;;;;;;6.70;3.28;;;30.50;98.80;;;;;;5089841;28;20199;-77
2021/06/13 12:39:30;;;;;;;4.55;3.00;;;30.20;96.60;;;;;;5087745;28;20198;-78
2021/06/13 12:42:10;;;;;;;5.40;3.35;;;29.50;97.20;;;;;;5086212;28;20267;-78
2021/06/13 12:44:38;;;;;;;4.65;3.15;;;29.40;97.60;;;;;;5089867;28;20723;-77
2021/06/13 12:47:07;;;;;;;7.18;3.38;;;29.00;99.30;;;;;;5089350;28;20274;-78
2021/06/13 12:49:43;;;;;;;7.55;3.13;;;28.90;98.20;;;;;;5080419;28;20225;-79
2021/06/13 12:52:14;;;;;;;7.53;3.33;;;28.90;98.10;;;;;;5075816;28;20207;-77
2021/06/13 12:54:42;;;;;;;6.70;3.03;;;29.00;98.00;;;;;;5087317;28;20191;-77
2021/06/13 12:57:09;;;;;;;7.10;3.20;;;28.80;98.80;;;;;;5077390;28;20228;-77